sensor_id;sensor_type;location;lat;lon;timestamp;temperature;humidity
63976;DHT22;50167;47.958;21.780;2022-11-23T00:01:22;7.39;57.97
63976;DHT22;50167;47.958;21.780;2022-11-23T00:03:51;6.57;60.00
63976;DHT22;50167;47.958;21.780;2022-11-23T00:06:19;6.00;63.91
63976;DHT22;50167;47.958;21.780;2022-11-23T00:08:46;6.87;68.36
63976;DHT22;50167;47.958;21.780;2022-11-23T00:11:13;8.52;65.32
63976;DHT22;50167;47.958;21.780;2022-11-23T00:13:40;9.49;61.61
63976;DHT22;50167;47.958;21.780;2022-11-23T00:16:09;9.98;59.37
63976;DHT22;50167;47.958;21.780;2022-11-23T00:18:36;9.63;54.90
63976;DHT22;50167;47.958;21.780;2022-11-23T00:21:14;8.46;55.33
63976;DHT22;50167;47.958;21.780;2022-11-23T00:23:42;7.46;56.78
63976;DHT22;50167;47.958;21.780;2022-11-23T00:26:10;6.77;58.77
63976;DHT22;50167;47.958;21.780;2022-11-23T00:28:37;6.24;63.97
63976;DHT22;50167;47.958;21.780;2022-11-23T00:31:06;6.94;66.36
63976;DHT22;50167;47.958;21.780;2022-11-23T00:33:33;8.46;65.65
63976;DHT22;50167;47.958;21.780;2022-11-23T00:36:11;9.48;61.13
63976;DHT22;50167;47.958;21.780;2022-11-23T00:38:34;10.11;58.18
63976;DHT22;50167;47.958;21.780;2022-11-23T00:41:03;9.69;54.22
63976;DHT22;50167;47.958;21.780;2022-11-23T00:43:30;8.51;54.62
63976;DHT22;50167;47.958;21.780;2022-11-23T00:46:25;7.62;56.78
63976;DHT22;50167;47.958;21.780;2022-11-23T00:48:53;6.83;57.80
63976;DHT22;50167;47.958;21.780;2022-11-23T00:51:29;6.32;60.16
63976;DHT22;50167;47.958;21.780;2022-11-23T00:53:54;5.86;61.79
63976;DHT22;50167;47.958;21.780;2022-11-23T00:56:21;6.65;67.62
63976;DHT22;50167;47.958;21.780;2022-11-23T00:58:49;8.35;66.19
63976;DHT22;50167;47.958;21.780;2022-11-23T01:01:18;9.39;61.42
63976;DHT22;50167;47.958;21.780;2022-11-23T01:03:48;10.01;58.67
63976;DHT22;50167;47.958;21.780;2022-11-23T01:06:23;9.49;55.68
63976;DHT22;50167;47.958;21.780;2022-11-23T01:08:55;8.20;56.93
63976;DHT22;50167;47.958;21.780;2022-11-23T01:11:23;7.24;58.09
63976;DHT22;50167;47.958;21.780;2022-11-23T01:13:51;6.55;59.42
63976;DHT22;50167;47.958;21.780;2022-11-23T01:16:22;6.05;60.58
63976;DHT22;50167;47.958;21.780;2022-11-23T01:18:54;6.76;67.01
63976;DHT22;50167;47.958;21.780;2022-11-23T01:21:21;8.49;64.75
63976;DHT22;50167;47.958;21.780;2022-11-23T01:23:47;9.63;61.40
63976;DHT22;50167;47.958;21.780;2022-11-23T01:26:13;10.31;57.66
63976;DHT22;50167;47.958;21.780;2022-11-23T01:28:40;9.65;53.43
63976;DHT22;50167;47.958;21.780;2022-11-23T01:31:16;8.46;54.12
63976;DHT22;50167;47.958;21.780;2022-11-23T01:33:42;7.49;58.75
63976;DHT22;50167;47.958;21.780;2022-11-23T01:36:16;6.79;58.31
63976;DHT22;50167;47.958;21.780;2022-11-23T01:38:43;6.18;61.04
63976;DHT22;50167;47.958;21.780;2022-11-23T01:41:23;6.63;65.62
63976;DHT22;50167;47.958;21.780;2022-11-23T01:43:50;8.43;65.53
63976;DHT22;50167;47.958;21.780;2022-11-23T01:46:16;9.62;61.07
63976;DHT22;50167;47.958;21.780;2022-11-23T01:48:48;10.32;57.42
63976;DHT22;50167;47.958;21.780;2022-11-23T01:51:27;9.63;53.44
63976;DHT22;50167;47.958;21.780;2022-11-23T01:54:14;8.38;54.46
63976;DHT22;50167;47.958;21.780;2022-11-23T01:56:45;7.35;59.37
63976;DHT22;50167;47.958;21.780;2022-11-23T01:59:15;6.63;59.17
63976;DHT22;50167;47.958;21.780;2022-11-23T02:01:43;6.10;60.22
63976;DHT22;50167;47.958;21.780;2022-11-23T02:04:13;5.65;62.37
63976;DHT22;50167;47.958;21.780;2022-11-23T02:06:42;6.50;68.04
63976;DHT22;50167;47.958;21.780;2022-11-23T02:09:10;8.29;67.40
63976;DHT22;50167;47.958;21.780;2022-11-23T02:11:36;9.43;61.55
63976;DHT22;50167;47.958;21.780;2022-11-23T02:14:02;10.13;58.51
63976;DHT22;50167;47.958;21.780;2022-11-23T02:16:28;9.72;53.52
63976;DHT22;50167;47.958;21.780;2022-11-23T02:18:55;8.46;54.22
63976;DHT22;50167;47.958;21.780;2022-11-23T02:21:22;7.42;57.34
63976;DHT22;50167;47.958;21.780;2022-11-23T02:24:12;6.67;59.41
63976;DHT22;50167;47.958;21.780;2022-11-23T02:26:38;5.98;62.68
63976;DHT22;50167;47.958;21.780;2022-11-23T02:29:21;6.70;66.12
63976;DHT22;50167;47.958;21.780;2022-11-23T02:31:48;8.35;63.91
63976;DHT22;50167;47.958;21.780;2022-11-23T02:34:16;9.28;60.80
63976;DHT22;50167;47.958;21.780;2022-11-23T02:36:49;9.83;58.71
63976;DHT22;50167;47.958;21.780;2022-11-23T02:39:21;9.42;53.62
63976;DHT22;50167;47.958;21.780;2022-11-23T02:41:51;8.25;54.72
63976;DHT22;50167;47.958;21.780;2022-11-23T02:47:09;6.60;57.96
63976;DHT22;50167;47.958;21.780;2022-11-23T02:49:35;6.10;61.38
63976;DHT22;50167;47.958;21.780;2022-11-23T02:52:02;6.70;65.63
63976;DHT22;50167;47.958;21.780;2022-11-23T02:54:29;8.36;64.77
63976;DHT22;50167;47.958;21.780;2022-11-23T02:56:55;9.58;60.45
63976;DHT22;50167;47.958;21.780;2022-11-23T02:59:21;10.32;57.32
63976;DHT22;50167;47.958;21.780;2022-11-23T03:01:48;9.82;53.47
63976;DHT22;50167;47.958;21.780;2022-11-23T03:04:14;8.69;53.80
63976;DHT22;50167;47.958;21.780;2022-11-23T03:06:41;7.86;55.75
63976;DHT22;50167;47.958;21.780;2022-11-23T03:09:07;7.19;57.12
63976;DHT22;50167;47.958;21.780;2022-11-23T03:11:34;6.69;58.64
63976;DHT22;50167;47.958;21.780;2022-11-23T03:14:00;6.22;60.27
63976;DHT22;50167;47.958;21.780;2022-11-23T03:16:26;5.86;61.62
63976;DHT22;50167;47.958;21.780;2022-11-23T03:18:52;6.61;67.53
63976;DHT22;50167;47.958;21.780;2022-11-23T03:21:18;8.31;66.75
63976;DHT22;50167;47.958;21.780;2022-11-23T03:23:44;9.45;62.04
63976;DHT22;50167;47.958;21.780;2022-11-23T03:26:10;10.13;58.39
63976;DHT22;50167;47.958;21.780;2022-11-23T03:28:36;9.82;54.14
63976;DHT22;50167;47.958;21.780;2022-11-23T03:31:03;8.67;55.00
63976;DHT22;50167;47.958;21.780;2022-11-23T03:33:29;7.74;56.16
63976;DHT22;50167;47.958;21.780;2022-11-23T03:35:55;7.08;57.54
63976;DHT22;50167;47.958;21.780;2022-11-23T03:38:21;6.53;59.03
63976;DHT22;50167;47.958;21.780;2022-11-23T03:40:47;6.11;60.51
63976;DHT22;50167;47.958;21.780;2022-11-23T03:43:14;5.74;62.19
63976;DHT22;50167;47.958;21.780;2022-11-23T03:45:41;6.52;68.36
63976;DHT22;50167;47.958;21.780;2022-11-23T03:48:07;8.22;66.89
63976;DHT22;50167;47.958;21.780;2022-11-23T03:50:33;9.43;61.40
63976;DHT22;50167;47.958;21.780;2022-11-23T03:53:00;10.13;57.95
63976;DHT22;50167;47.958;21.780;2022-11-23T03:55:26;9.77;53.43
63976;DHT22;50167;47.958;21.780;2022-11-23T03:57:52;8.62;54.27
63976;DHT22;50167;47.958;21.780;2022-11-23T04:00:20;7.73;55.52
63976;DHT22;50167;47.958;21.780;2022-11-23T04:02:46;7.07;57.71
63976;DHT22;50167;47.958;21.780;2022-11-23T04:05:12;6.56;59.22
63976;DHT22;50167;47.958;21.780;2022-11-23T04:07:39;6.15;60.55
63976;DHT22;50167;47.958;21.780;2022-11-23T04:10:05;5.80;61.64
63976;DHT22;50167;47.958;21.780;2022-11-23T04:12:32;6.59;66.06
63976;DHT22;50167;47.958;21.780;2022-11-23T04:14:58;8.29;66.39
63976;DHT22;50167;47.958;21.780;2022-11-23T04:17:24;9.34;62.65
63976;DHT22;50167;47.958;21.780;2022-11-23T04:19:50;10.00;59.32
63976;DHT22;50167;47.958;21.780;2022-11-23T04:22:16;9.69;54.48
63976;DHT22;50167;47.958;21.780;2022-11-23T04:24:42;8.59;54.70
63976;DHT22;50167;47.958;21.780;2022-11-23T04:27:08;7.70;56.12
63976;DHT22;50167;47.958;21.780;2022-11-23T04:29:34;7.07;57.97
63976;DHT22;50167;47.958;21.780;2022-11-23T04:32:00;6.56;59.39
63976;DHT22;50167;47.958;21.780;2022-11-23T04:34:26;6.12;61.13
63976;DHT22;50167;47.958;21.780;2022-11-23T04:36:52;5.80;62.08
63976;DHT22;50167;47.958;21.780;2022-11-23T04:39:18;6.63;68.62
63976;DHT22;50167;47.958;21.780;2022-11-23T04:41:44;8.21;66.90
63976;DHT22;50167;47.958;21.780;2022-11-23T04:44:10;9.08;62.99
63976;DHT22;50167;47.958;21.780;2022-11-23T04:46:36;9.73;59.98
63976;DHT22;50167;47.958;21.780;2022-11-23T04:49:02;9.52;56.39
63976;DHT22;50167;47.958;21.780;2022-11-23T04:51:28;8.43;56.07
63976;DHT22;50167;47.958;21.780;2022-11-23T04:53:54;7.50;60.10
63976;DHT22;50167;47.958;21.780;2022-11-23T04:56:20;6.80;59.66
63976;DHT22;50167;47.958;21.780;2022-11-23T04:58:46;6.32;61.44
63976;DHT22;50167;47.958;21.780;2022-11-23T05:01:12;6.91;67.28
63976;DHT22;50167;47.958;21.780;2022-11-23T05:03:38;8.55;66.69
63976;DHT22;50167;47.958;21.780;2022-11-23T05:06:05;9.66;62.84
63976;DHT22;50167;47.958;21.780;2022-11-23T05:08:32;10.23;60.50
63976;DHT22;50167;47.958;21.780;2022-11-23T05:10:58;10.59;58.02
63976;DHT22;50167;47.958;21.780;2022-11-23T05:13:24;10.07;54.70
63976;DHT22;50167;47.958;21.780;2022-11-23T05:15:50;8.86;55.03
63976;DHT22;50167;47.958;21.780;2022-11-23T05:18:16;7.87;56.79
63976;DHT22;50167;47.958;21.780;2022-11-23T05:20:42;7.14;58.74
63976;DHT22;50167;47.958;21.780;2022-11-23T05:23:09;6.50;61.77
63976;DHT22;50167;47.958;21.780;2022-11-23T05:25:35;6.94;65.41
63976;DHT22;50167;47.958;21.780;2022-11-23T05:28:01;8.13;65.43
63976;DHT22;50167;47.958;21.780;2022-11-23T05:30:28;8.89;63.98
63976;DHT22;50167;47.958;21.780;2022-11-23T05:33:01;9.45;62.24
63976;DHT22;50167;47.958;21.780;2022-11-23T05:35:28;9.96;60.68
63976;DHT22;50167;47.958;21.780;2022-11-23T05:37:54;10.23;59.13
63976;DHT22;50167;47.958;21.780;2022-11-23T05:40:21;9.67;56.33
63976;DHT22;50167;47.958;21.780;2022-11-23T05:42:47;8.39;57.31
63976;DHT22;50167;47.958;21.780;2022-11-23T05:45:14;7.41;58.78
63976;DHT22;50167;47.958;21.780;2022-11-23T05:47:40;6.70;60.33
63976;DHT22;50167;47.958;21.780;2022-11-23T05:50:07;6.21;62.32
63976;DHT22;50167;47.958;21.780;2022-11-23T05:52:33;6.87;68.12
63976;DHT22;50167;47.958;21.780;2022-11-23T05:55:00;8.46;67.60
63976;DHT22;50167;47.958;21.780;2022-11-23T05:57:26;9.52;63.63
63976;DHT22;50167;47.958;21.780;2022-11-23T05:59:52;10.14;61.14
63976;DHT22;50167;47.958;21.780;2022-11-23T06:02:18;10.53;58.81
63976;DHT22;50167;47.958;21.780;2022-11-23T06:04:44;10.07;55.55
63976;DHT22;50167;47.958;21.780;2022-11-23T06:07:10;8.83;56.48
63976;DHT22;50167;47.958;21.780;2022-11-23T06:09:36;7.86;58.16
63976;DHT22;50167;47.958;21.780;2022-11-23T06:12:03;7.19;60.22
63976;DHT22;50167;47.958;21.780;2022-11-23T06:14:29;6.60;61.53
63976;DHT22;50167;47.958;21.780;2022-11-23T06:16:55;7.25;67.73
63976;DHT22;50167;47.958;21.780;2022-11-23T06:19:21;8.72;66.88
63976;DHT22;50167;47.958;21.780;2022-11-23T06:21:47;9.70;63.07
63976;DHT22;50167;47.958;21.780;2022-11-23T06:24:14;10.27;60.36
63976;DHT22;50167;47.958;21.780;2022-11-23T06:26:40;10.41;57.76
63976;DHT22;50167;47.958;21.780;2022-11-23T06:29:06;9.42;55.99
63976;DHT22;50167;47.958;21.780;2022-11-23T06:31:32;8.33;57.58
63976;DHT22;50167;47.958;21.780;2022-11-23T06:33:58;7.52;59.33
63976;DHT22;50167;47.958;21.780;2022-11-23T06:36:24;6.90;60.62
63976;DHT22;50167;47.958;21.780;2022-11-23T06:38:50;7.29;66.68
63976;DHT22;50167;47.958;21.780;2022-11-23T06:41:16;8.70;66.50
63976;DHT22;50167;47.958;21.780;2022-11-23T06:43:42;9.69;63.01
63976;DHT22;50167;47.958;21.780;2022-11-23T06:46:10;10.25;60.84
63976;DHT22;50167;47.958;21.780;2022-11-23T06:48:36;10.58;59.29
63976;DHT22;50167;47.958;21.780;2022-11-23T06:51:03;10.15;55.92
63976;DHT22;50167;47.958;21.780;2022-11-23T06:53:29;8.90;58.23
63976;DHT22;50167;47.958;21.780;2022-11-23T06:55:59;7.92;59.68
63976;DHT22;50167;47.958;21.780;2022-11-23T06:58:25;7.11;61.88
63976;DHT22;50167;47.958;21.780;2022-11-23T07:00:52;7.57;65.80
63976;DHT22;50167;47.958;21.780;2022-11-23T07:03:21;8.97;66.06
63976;DHT22;50167;47.958;21.780;2022-11-23T07:05:48;9.85;63.01
63976;DHT22;50167;47.958;21.780;2022-11-23T07:08:15;10.35;60.66
63976;DHT22;50167;47.958;21.780;2022-11-23T07:10:41;10.75;59.05
63976;DHT22;50167;47.958;21.780;2022-11-23T07:13:09;10.41;55.81
63976;DHT22;50167;47.958;21.780;2022-11-23T07:15:37;9.31;56.51
63976;DHT22;50167;47.958;21.780;2022-11-23T07:18:04;8.38;58.44
63976;DHT22;50167;47.958;21.780;2022-11-23T07:20:34;7.74;60.27
63976;DHT22;50167;47.958;21.780;2022-11-23T07:23:07;7.18;62.42
63976;DHT22;50167;47.958;21.780;2022-11-23T07:25:35;7.89;67.58
63976;DHT22;50167;47.958;21.780;2022-11-23T07:28:03;9.42;66.27
63976;DHT22;50167;47.958;21.780;2022-11-23T07:30:31;10.38;62.86
63976;DHT22;50167;47.958;21.780;2022-11-23T07:33:04;11.02;59.19
63976;DHT22;50167;47.958;21.780;2022-11-23T07:35:31;10.62;56.21
63976;DHT22;50167;47.958;21.780;2022-11-23T07:37:58;9.53;56.78
63976;DHT22;50167;47.958;21.780;2022-11-23T07:40:24;8.67;59.04
63976;DHT22;50167;47.958;21.780;2022-11-23T07:42:51;8.01;60.39
63976;DHT22;50167;47.958;21.780;2022-11-23T07:45:18;7.55;62.46
63976;DHT22;50167;47.958;21.780;2022-11-23T07:47:45;8.24;67.97
63976;DHT22;50167;47.958;21.780;2022-11-23T07:50:12;9.76;66.16
63976;DHT22;50167;47.958;21.780;2022-11-23T07:52:39;10.79;62.24
63976;DHT22;50167;47.958;21.780;2022-11-23T07:55:06;11.44;59.13
63976;DHT22;50167;47.958;21.780;2022-11-23T07:57:33;11.10;55.10
63976;DHT22;50167;47.958;21.780;2022-11-23T07:59:59;9.97;56.12
63976;DHT22;50167;47.958;21.780;2022-11-23T08:02:25;9.06;58.32
63976;DHT22;50167;47.958;21.780;2022-11-23T08:04:51;8.36;59.81
63976;DHT22;50167;47.958;21.780;2022-11-23T08:07:17;7.92;61.31
63976;DHT22;50167;47.958;21.780;2022-11-23T08:09:43;8.46;66.63
63976;DHT22;50167;47.958;21.780;2022-11-23T08:12:09;10.17;65.55
63976;DHT22;50167;47.958;21.780;2022-11-23T08:14:34;11.11;61.70
63976;DHT22;50167;47.958;21.780;2022-11-23T08:17:01;11.66;58.49
63976;DHT22;50167;47.958;21.780;2022-11-23T08:19:31;11.10;55.00
63976;DHT22;50167;47.958;21.780;2022-11-23T08:21:57;10.03;56.18
63976;DHT22;50167;47.958;21.780;2022-11-23T08:24:23;9.15;57.95
63976;DHT22;50167;47.958;21.780;2022-11-23T08:26:49;8.46;61.04
63976;DHT22;50167;47.958;21.780;2022-11-23T08:29:15;7.92;61.87
63976;DHT22;50167;47.958;21.780;2022-11-23T08:31:41;8.63;66.83
63976;DHT22;50167;47.958;21.780;2022-11-23T08:34:08;10.18;64.76
63976;DHT22;50167;47.958;21.780;2022-11-23T08:36:34;11.07;60.82
63976;DHT22;50167;47.958;21.780;2022-11-23T08:39:01;11.73;58.84
63976;DHT22;50167;47.958;21.780;2022-11-23T08:41:27;11.47;55.16
63976;DHT22;50167;47.958;21.780;2022-11-23T08:43:53;10.41;55.20
63976;DHT22;50167;47.958;21.780;2022-11-23T08:46:21;9.55;57.80
63976;DHT22;50167;47.958;21.780;2022-11-23T08:48:47;8.86;62.50
63976;DHT22;50167;47.958;21.780;2022-11-23T08:51:13;9.32;64.77
63976;DHT22;50167;47.958;21.780;2022-11-23T08:53:39;10.71;62.53
63976;DHT22;50167;47.958;21.780;2022-11-23T08:56:07;11.58;59.85
63976;DHT22;50167;47.958;21.780;2022-11-23T08:58:33;11.42;56.03
63976;DHT22;50167;47.958;21.780;2022-11-23T09:00:59;10.38;57.57
63976;DHT22;50167;47.958;21.780;2022-11-23T09:03:25;9.42;59.42
63976;DHT22;50167;47.958;21.780;2022-11-23T09:05:51;8.69;62.08
63976;DHT22;50167;47.958;21.780;2022-11-23T09:08:19;9.15;65.03
63976;DHT22;50167;47.958;21.780;2022-11-23T09:10:45;10.56;62.99
63976;DHT22;50167;47.958;21.780;2022-11-23T09:13:11;11.34;59.30
63976;DHT22;50167;47.958;21.780;2022-11-23T09:15:38;11.02;57.20
63976;DHT22;50167;47.958;21.780;2022-11-23T09:18:04;10.03;57.49
63976;DHT22;50167;47.958;21.780;2022-11-23T09:20:30;9.28;59.91
63976;DHT22;50167;47.958;21.780;2022-11-23T09:22:56;8.73;62.98
63976;DHT22;50167;47.958;21.780;2022-11-23T09:25:23;9.74;63.50
63976;DHT22;50167;47.958;21.780;2022-11-23T09:27:54;10.99;61.62
63976;DHT22;50167;47.958;21.780;2022-11-23T09:30:17;11.68;58.63
63976;DHT22;50167;47.958;21.780;2022-11-23T09:32:43;11.42;55.05
63976;DHT22;50167;47.958;21.780;2022-11-23T09:35:09;10.32;56.27
63976;DHT22;50167;47.958;21.780;2022-11-23T09:37:35;9.41;57.76
63976;DHT22;50167;47.958;21.780;2022-11-23T09:40:01;8.74;61.91
63976;DHT22;50167;47.958;21.780;2022-11-23T09:45:29;9.69;65.48
63976;DHT22;50167;47.958;21.780;2022-11-23T09:51:19;11.52;56.61
63976;DHT22;50167;47.958;21.780;2022-11-23T09:56:45;9.41;60.80
63976;DHT22;50167;47.958;21.780;2022-11-23T09:59:41;9.38;62.93
63976;DHT22;50167;47.958;21.780;2022-11-23T10:02:23;11.06;62.69
63976;DHT22;50167;47.958;21.780;2022-11-23T10:04:52;11.76;57.57
63976;DHT22;50167;47.958;21.780;2022-11-23T10:07:46;10.89;57.77
63976;DHT22;50167;47.958;21.780;2022-11-23T10:16:36;10.87;61.95
63976;DHT22;50167;47.958;21.780;2022-11-23T10:19:29;12.65;58.64
63976;DHT22;50167;47.958;21.780;2022-11-23T10:24:55;11.06;55.89
63976;DHT22;50167;47.958;21.780;2022-11-23T10:27:23;10.39;56.77
63976;DHT22;50167;47.958;21.780;2022-11-23T10:29:50;9.92;61.00
63976;DHT22;50167;47.958;21.780;2022-11-23T10:32:36;10.03;62.49
63976;DHT22;50167;47.958;21.780;2022-11-23T10:35:29;11.83;60.68
63976;DHT22;50167;47.958;21.780;2022-11-23T10:38:14;11.85;55.43
63976;DHT22;50167;47.958;21.780;2022-11-23T10:43:46;10.01;59.46
63976;DHT22;50167;47.958;21.780;2022-11-23T10:49:17;10.38;64.75
63976;DHT22;50167;47.958;21.780;2022-11-23T10:52:02;12.13;60.47
63976;DHT22;50167;47.958;21.780;2022-11-23T10:54:37;12.24;55.69
63976;DHT22;50167;47.958;21.780;2022-11-23T10:57:33;11.10;58.08
63976;DHT22;50167;47.958;21.780;2022-11-23T11:02:46;9.58;60.85
63976;DHT22;50167;47.958;21.780;2022-11-23T11:08:12;10.89;60.68
63976;DHT22;50167;47.958;21.780;2022-11-23T11:10:46;12.12;57.72
63976;DHT22;50167;47.958;21.780;2022-11-23T11:13:30;11.97;55.11
63976;DHT22;50167;47.958;21.780;2022-11-23T11:16:07;10.97;57.65
63976;DHT22;50167;47.958;21.780;2022-11-23T11:18:36;10.24;58.66
63976;DHT22;50167;47.958;21.780;2022-11-23T11:21:35;9.67;62.24
63976;DHT22;50167;47.958;21.780;2022-11-23T11:24:11;9.52;63.70
63976;DHT22;50167;47.958;21.780;2022-11-23T11:26:34;11.04;61.01
63976;DHT22;50167;47.958;21.780;2022-11-23T11:29:05;11.93;56.18
63976;DHT22;50167;47.958;21.780;2022-11-23T11:34:52;10.07;59.34
63976;DHT22;50167;47.958;21.780;2022-11-23T11:37:44;9.45;61.86
63976;DHT22;50167;47.958;21.780;2022-11-23T11:40:34;9.03;61.25
63976;DHT22;50167;47.958;21.780;2022-11-23T11:45:53;8.67;64.89
63976;DHT22;50167;47.958;21.780;2022-11-23T11:48:24;10.13;65.44
63976;DHT22;50167;47.958;21.780;2022-11-23T11:50:58;11.88;61.94
63976;DHT22;50167;47.958;21.780;2022-11-23T11:53:28;12.92;55.71
63976;DHT22;50167;47.958;21.780;2022-11-23T11:56:11;12.62;53.16
63976;DHT22;50167;47.958;21.780;2022-11-23T11:58:31;11.69;53.74
63976;DHT22;50167;47.958;21.780;2022-11-23T12:01:08;11.03;55.11
63976;DHT22;50167;47.958;21.780;2022-11-23T12:03:58;10.46;56.76
63976;DHT22;50167;47.958;21.780;2022-11-23T12:06:26;10.03;60.83
63976;DHT22;50167;47.958;21.780;2022-11-23T12:09:00;9.69;61.66
63976;DHT22;50167;47.958;21.780;2022-11-23T12:11:27;9.66;63.52
63976;DHT22;50167;47.958;21.780;2022-11-23T12:14:00;11.21;59.35
63976;DHT22;50167;47.958;21.780;2022-11-23T12:17:09;11.79;56.87
63976;DHT22;50167;47.958;21.780;2022-11-23T12:19:50;11.03;57.73
63976;DHT22;50167;47.958;21.780;2022-11-23T12:25:32;10.24;57.78
63976;DHT22;50167;47.958;21.780;2022-11-23T12:42:22;10.03;59.65
63976;DHT22;50167;47.958;21.780;2022-11-23T12:45:16;10.39;62.25
63976;DHT22;50167;47.958;21.780;2022-11-23T12:47:58;12.01;56.56
63976;DHT22;50167;47.958;21.780;2022-11-23T12:54:15;10.69;57.38
63976;DHT22;50167;47.958;21.780;2022-11-23T12:59:41;9.79;58.77
63976;DHT22;50167;47.958;21.780;2022-11-23T13:02:13;9.55;59.91
63976;DHT22;50167;47.958;21.780;2022-11-23T13:07:47;9.03;62.14
63976;DHT22;50167;47.958;21.780;2022-11-23T13:22:20;11.37;54.63
63976;DHT22;50167;47.958;21.780;2022-11-23T13:30:27;9.69;59.23
63976;DHT22;50167;47.958;21.780;2022-11-23T13:33:02;9.32;61.30
63976;DHT22;50167;47.958;21.780;2022-11-23T13:40:44;11.86;62.49
63976;DHT22;50167;47.958;21.780;2022-11-23T13:43:24;12.89;58.88
63976;DHT22;50167;47.958;21.780;2022-11-23T13:46:20;12.74;54.81
63976;DHT22;50167;47.958;21.780;2022-11-23T13:48:53;11.64;55.62
63976;DHT22;50167;47.958;21.780;2022-11-23T13:56:41;10.27;60.77
63976;DHT22;50167;47.958;21.780;2022-11-23T13:59:30;10.01;62.02
63976;DHT22;50167;47.958;21.780;2022-11-23T14:04:44;10.96;65.45
63976;DHT22;50167;47.958;21.780;2022-11-23T14:07:35;12.55;61.06
63976;DHT22;50167;47.958;21.780;2022-11-23T14:10:28;13.57;58.49
63976;DHT22;50167;47.958;21.780;2022-11-23T14:12:56;13.19;54.08
63976;DHT22;50167;47.958;21.780;2022-11-23T14:15:28;12.04;54.54
63976;DHT22;50167;47.958;21.780;2022-11-23T14:33:43;10.15;67.29
63976;DHT22;50167;47.958;21.780;2022-11-23T14:42:22;12.41;54.52
63976;DHT22;50167;47.958;21.780;2022-11-23T14:44:49;11.38;55.54
63976;DHT22;50167;47.958;21.780;2022-11-23T14:47:27;10.58;57.79
63976;DHT22;50167;47.958;21.780;2022-11-23T14:49:55;9.96;59.13
63976;DHT22;50167;47.958;21.780;2022-11-23T14:52:25;9.49;60.02
63976;DHT22;50167;47.958;21.780;2022-11-23T14:54:55;9.04;61.07
63976;DHT22;50167;47.958;21.780;2022-11-23T14:57:26;8.60;63.97
63976;DHT22;50167;47.958;21.780;2022-11-23T14:59:55;9.49;72.17
63976;DHT22;50167;47.958;21.780;2022-11-23T15:02:37;11.07;67.56
63976;DHT22;50167;47.958;21.780;2022-11-23T15:05:18;12.20;60.63
63976;DHT22;50167;47.958;21.780;2022-11-23T15:08:15;12.83;58.67
63976;DHT22;50167;47.958;21.780;2022-11-23T15:13:44;10.94;55.00
63976;DHT22;50167;47.958;21.780;2022-11-23T15:16:12;10.06;57.01
63976;DHT22;50167;47.958;21.780;2022-11-23T15:18:39;9.41;59.13
63976;DHT22;50167;47.958;21.780;2022-11-23T15:23:53;8.46;61.75
63976;DHT22;50167;47.958;21.780;2022-11-23T15:26:23;9.37;67.59
63976;DHT22;50167;47.958;21.780;2022-11-23T15:28:51;10.96;64.82
63976;DHT22;50167;47.958;21.780;2022-11-23T15:31:35;11.92;61.20
63976;DHT22;50167;47.958;21.780;2022-11-23T15:34:08;12.49;58.46
63976;DHT22;50167;47.958;21.780;2022-11-23T15:36:33;11.99;52.94
63976;DHT22;50167;47.958;21.780;2022-11-23T15:39:02;10.90;55.23
63976;DHT22;50167;47.958;21.780;2022-11-23T15:41:30;10.03;56.32
63976;DHT22;50167;47.958;21.780;2022-11-23T15:43:59;9.34;58.05
63976;DHT22;50167;47.958;21.780;2022-11-23T15:46:34;8.81;59.83
63976;DHT22;50167;47.958;21.780;2022-11-23T15:49:03;8.35;61.22
63976;DHT22;50167;47.958;21.780;2022-11-23T15:51:39;7.94;62.27
63976;DHT22;50167;47.958;21.780;2022-11-23T15:54:03;8.81;68.22
63976;DHT22;50167;47.958;21.780;2022-11-23T15:56:35;10.46;66.59
63976;DHT22;50167;47.958;21.780;2022-11-23T16:01:53;12.03;58.49
63976;DHT22;50167;47.958;21.780;2022-11-23T16:04:39;11.52;54.98
63976;DHT22;50167;47.958;21.780;2022-11-23T16:07:24;10.17;56.55
63976;DHT22;50167;47.958;21.780;2022-11-23T16:10:17;9.08;57.98
63976;DHT22;50167;47.958;21.780;2022-11-23T16:12:48;8.36;59.98
63976;DHT22;50167;47.958;21.780;2022-11-23T16:15:38;7.79;60.76
63976;DHT22;50167;47.958;21.780;2022-11-23T16:18:24;7.28;62.94
63976;DHT22;50167;47.958;21.780;2022-11-23T16:21:01;8.29;70.02
63976;DHT22;50167;47.958;21.780;2022-11-23T16:23:39;9.93;66.56
63976;DHT22;50167;47.958;21.780;2022-11-23T16:26:03;10.76;62.58
63976;DHT22;50167;47.958;21.780;2022-11-23T16:28:33;11.28;60.22
63976;DHT22;50167;47.958;21.780;2022-11-23T16:31:01;11.78;58.23
63976;DHT22;50167;47.958;21.780;2022-11-23T16:33:27;11.25;54.67
63976;DHT22;50167;47.958;21.780;2022-11-23T16:35:55;10.04;55.42
63976;DHT22;50167;47.958;21.780;2022-11-23T16:38:22;9.10;57.31
63976;DHT22;50167;47.958;21.780;2022-11-23T16:40:49;8.33;58.93
63976;DHT22;50167;47.958;21.780;2022-11-23T16:43:16;7.73;60.12
63976;DHT22;50167;47.958;21.780;2022-11-23T16:45:45;7.21;62.20
63976;DHT22;50167;47.958;21.780;2022-11-23T16:50:57;9.53;65.98
63976;DHT22;50167;47.958;21.780;2022-11-23T16:53:23;10.48;61.78
63976;DHT22;50167;47.958;21.780;2022-11-23T16:55:57;10.94;58.64
63976;DHT22;50167;47.958;21.780;2022-11-23T16:58:23;10.44;55.28
63976;DHT22;50167;47.958;21.780;2022-11-23T17:00:50;9.22;56.41
63976;DHT22;50167;47.958;21.780;2022-11-23T17:03:19;8.31;58.10
63976;DHT22;50167;47.958;21.780;2022-11-23T17:05:46;7.62;59.90
63976;DHT22;50167;47.958;21.780;2022-11-23T17:08:13;7.10;61.35
63976;DHT22;50167;47.958;21.780;2022-11-23T17:10:39;7.67;67.88
63976;DHT22;50167;47.958;21.780;2022-11-23T17:13:21;9.28;65.67
63976;DHT22;50167;47.958;21.780;2022-11-23T17:15:50;10.36;60.94
63976;DHT22;50167;47.958;21.780;2022-11-23T17:18:16;10.93;58.47
63976;DHT22;50167;47.958;21.780;2022-11-23T17:20:43;10.44;54.72
63976;DHT22;50167;47.958;21.780;2022-11-23T17:23:10;9.35;55.58
63976;DHT22;50167;47.958;21.780;2022-11-23T17:25:37;8.49;57.32
63976;DHT22;50167;47.958;21.780;2022-11-23T17:28:05;7.80;59.00
63976;DHT22;50167;47.958;21.780;2022-11-23T17:30:32;7.26;60.45
63976;DHT22;50167;47.958;21.780;2022-11-23T17:32:59;6.77;61.75
63976;DHT22;50167;47.958;21.780;2022-11-23T17:35:25;7.49;68.74
63976;DHT22;50167;47.958;21.780;2022-11-23T17:37:51;9.20;66.22
63976;DHT22;50167;47.958;21.780;2022-11-23T17:40:21;10.24;62.30
63976;DHT22;50167;47.958;21.780;2022-11-23T17:42:47;10.80;59.29
63976;DHT22;50167;47.958;21.780;2022-11-23T17:45:13;10.35;55.65
63976;DHT22;50167;47.958;21.780;2022-11-23T17:47:41;9.12;56.30
63976;DHT22;50167;47.958;21.780;2022-11-23T17:50:16;8.14;57.70
63976;DHT22;50167;47.958;21.780;2022-11-23T17:52:46;7.41;59.40